Time;durP1;ratioP1;P1;durP2;ratioP2;P2;SDS_P1;SDS_P2;PMS_P1;PMS_P2;Temp;Humidity;BMP_temperature;BMP_pressure;BME280_temperature;BME280_humidity;BME280_pressure;Samples;Min_cycle;Max_cycle;Signal;HPM_P1;HPM_P2
2023/12/16 00:00:29;;;;;;;1.50;0.80;;;;;;;;;;5040511;28;20045;-59
2023/12/16 00:02:55;;;;;;;1.70;0.95;;;;;;;;;;5040091;28;20055;-58
2023/12/16 00:05:22;;;;;;;1.25;0.70;;;;;;;;;;5064374;28;20145;-60
2023/12/16 00:07:47;;;;;;;1.30;0.73;;;;;;;;;;5042824;28;20026;-60
2023/12/16 00:10:12;;;;;;;1.77;0.90;;;;;;;;;;5038945;28;20040;-58
2023/12/16 00:12:38;;;;;;;1.35;0.65;;;;;;;;;;5043499;28;20044;-59
2023/12/16 00:15:04;;;;;;;1.33;0.80;;;;;;;;;;5041039;28;20044;-59
2023/12/16 00:17:30;;;;;;;1.90;0.90;;;;;;;;;;5046657;28;20193;-58
2023/12/16 00:19:55;;;;;;;1.50;0.73;;;;;;;;;;5047125;28;20159;-59
2023/12/16 00:22:20;;;;;;;1.10;0.63;;;;;;;;;;5046143;28;20118;-58
2023/12/16 00:24:46;;;;;;;1.48;0.77;;;;;;;;;;5048165;28;20042;-59
2023/12/16 00:27:11;;;;;;;1.45;0.65;;;;;;;;;;5033389;28;20041;-59
2023/12/16 00:29:36;;;;;;;1.73;0.65;;;;;;;;;;5026579;28;20042;-59
2023/12/16 00:32:02;;;;;;;1.65;0.73;;;;;;;;;;5031176;28;20048;-59
2023/12/16 00:34:28;;;;;;;1.20;0.60;;;;;;;;;;5048634;28;20131;-59
2023/12/16 00:36:54;;;;;;;1.55;0.80;;;;;;;;;;5050868;28;20029;-59
2023/12/16 00:39:19;;;;;;;1.55;0.90;;;;;;;;;;5041716;28;20055;-59
2023/12/16 00:41:44;;;;;;;0.88;0.60;;;;;;;;;;5041172;28;20549;-59
2023/12/16 00:44:10;;;;;;;1.40;0.70;;;;;;;;;;5037126;28;20084;-59
2023/12/16 00:46:35;;;;;;;1.20;0.65;;;;;;;;;;5043875;28;20065;-59
2023/12/16 00:49:00;;;;;;;1.25;0.80;;;;;;;;;;5028687;28;20064;-59
2023/12/16 00:51:26;;;;;;;1.83;0.82;;;;;;;;;;5038279;28;20041;-59
2023/12/16 00:53:51;;;;;;;1.45;0.80;;;;;;;;;;5031204;28;20400;-59
2023/12/16 00:56:16;;;;;;;1.02;0.63;;;;;;;;;;5034326;28;20096;-59
2023/12/16 00:58:42;;;;;;;1.40;0.63;;;;;;;;;;5037114;28;20542;-59
2023/12/16 01:01:07;;;;;;;0.65;0.45;;;;;;;;;;5039074;28;20576;-59
2023/12/16 01:03:32;;;;;;;1.05;0.60;;;;;;;;;;5042904;28;20467;-60
2023/12/16 01:05:57;;;;;;;1.30;0.60;;;;;;;;;;5047866;28;20040;-59
2023/12/16 01:08:23;;;;;;;1.13;0.63;;;;;;;;;;5039718;28;20068;-59
2023/12/16 01:10:48;;;;;;;1.27;0.70;;;;;;;;;;5040723;28;20128;-60
2023/12/16 01:13:13;;;;;;;1.20;0.60;;;;;;;;;;5026777;28;20037;-59
2023/12/16 01:15:39;;;;;;;1.58;0.80;;;;;;;;;;5048465;28;20036;-59
2023/12/16 01:18:04;;;;;;;1.80;0.70;;;;;;;;;;5027674;28;20521;-59
2023/12/16 01:20:29;;;;;;;0.90;0.60;;;;;;;;;;5049772;28;20040;-60
2023/12/16 01:22:55;;;;;;;1.30;0.60;;;;;;;;;;5058572;28;20033;-59
2023/12/16 01:25:20;;;;;;;1.30;0.75;;;;;;;;;;5057552;28;20074;-59
2023/12/16 01:27:46;;;;;;;1.23;0.60;;;;;;;;;;5044305;28;20415;-58
2023/12/16 01:30:12;;;;;;;1.42;0.52;;;;;;;;;;5027447;28;20072;-58
2023/12/16 01:32:37;;;;;;;1.27;0.60;;;;;;;;;;5042662;28;20061;-59
2023/12/16 01:35:03;;;;;;;1.77;0.65;;;;;;;;;;5042725;28;20056;-59
2023/12/16 01:37:29;;;;;;;1.20;0.65;;;;;;;;;;5046697;28;20033;-59
2023/12/16 01:39:54;;;;;;;1.67;0.80;;;;;;;;;;5045527;28;20059;-58
2023/12/16 01:42:20;;;;;;;1.13;0.60;;;;;;;;;;5060277;28;20108;-59
2023/12/16 01:44:45;;;;;;;1.13;0.70;;;;;;;;;;5051850;28;20059;-59
2023/12/16 01:47:10;;;;;;;1.10;0.70;;;;;;;;;;5045753;28;20435;-59
2023/12/16 01:49:37;;;;;;;1.33;0.55;;;;;;;;;;5022355;28;20471;-59
2023/12/16 01:52:03;;;;;;;1.48;0.70;;;;;;;;;;5050816;28;20052;-59
2023/12/16 01:54:28;;;;;;;0.90;0.50;;;;;;;;;;5049988;28;20190;-59
2023/12/16 01:56:57;;;;;;;0.70;0.47;;;;;;;;;;5026837;28;20700;-58
2023/12/16 01:59:23;;;;;;;0.80;0.52;;;;;;;;;;5029121;28;20097;-59
2023/12/16 02:01:48;;;;;;;1.27;0.65;;;;;;;;;;5045096;28;20041;-59
2023/12/16 02:04:13;;;;;;;1.25;0.90;;;;;;;;;;5035950;28;20064;-59
2023/12/16 02:06:39;;;;;;;1.40;0.60;;;;;;;;;;5058890;28;20392;-59
2023/12/16 02:09:05;;;;;;;1.65;0.60;;;;;;;;;;5047797;28;20167;-59
2023/12/16 02:11:31;;;;;;;1.17;0.73;;;;;;;;;;5051337;28;20478;-58
2023/12/16 02:13:56;;;;;;;1.00;0.50;;;;;;;;;;5044378;28;20057;-59
2023/12/16 02:16:21;;;;;;;1.40;0.50;;;;;;;;;;5054295;28;20060;-59
2023/12/16 02:18:47;;;;;;;0.90;0.50;;;;;;;;;;5032814;28;20029;-58
2023/12/16 02:21:12;;;;;;;1.15;0.60;;;;;;;;;;5027717;28;20052;-60
2023/12/16 02:23:38;;;;;;;0.88;0.50;;;;;;;;;;5040212;28;20594;-59
2023/12/16 02:26:04;;;;;;;0.80;0.50;;;;;;;;;;5051366;28;20052;-59
2023/12/16 02:28:30;;;;;;;1.80;0.60;;;;;;;;;;5031128;28;20037;-58
2023/12/16 02:30:56;;;;;;;0.88;0.52;;;;;;;;;;5025008;28;20065;-59
2023/12/16 02:33:21;;;;;;;1.27;0.63;;;;;;;;;;5045445;28;20162;-59
2023/12/16 02:35:46;;;;;;;1.00;0.60;;;;;;;;;;5043417;28;20029;-58
2023/12/16 02:38:12;;;;;;;1.10;0.40;;;;;;;;;;5052749;28;20029;-58
2023/12/16 02:40:42;;;;;;;1.02;0.63;;;;;;;;;;5046071;28;20052;-59
2023/12/16 02:43:07;;;;;;;0.93;0.45;;;;;;;;;;5019170;28;20044;-59
2023/12/16 02:45:33;;;;;;;1.23;0.60;;;;;;;;;;5065098;28;20041;-58
2023/12/16 02:47:58;;;;;;;1.02;0.60;;;;;;;;;;5047674;28;20411;-59
2023/12/16 02:50:23;;;;;;;1.13;0.60;;;;;;;;;;5060184;28;20068;-59
2023/12/16 02:52:48;;;;;;;0.90;0.50;;;;;;;;;;5044065;28;20096;-59
2023/12/16 02:55:14;;;;;;;0.88;0.50;;;;;;;;;;5031695;28;20053;-60
2023/12/16 02:57:39;;;;;;;1.13;0.50;;;;;;;;;;5058540;28;20037;-60
2023/12/16 03:00:05;;;;;;;0.90;0.50;;;;;;;;;;5044858;28;20730;-59
2023/12/16 03:02:30;;;;;;;1.15;0.50;;;;;;;;;;5038213;28;20099;-59
2023/12/16 03:04:56;;;;;;;0.60;0.50;;;;;;;;;;5042376;28;20029;-60
2023/12/16 03:07:21;;;;;;;0.88;0.52;;;;;;;;;;5047273;28;20089;-59
2023/12/16 03:09:46;;;;;;;1.10;0.43;;;;;;;;;;5028144;28;20025;-59
2023/12/16 03:12:11;;;;;;;0.70;0.30;;;;;;;;;;5044553;28;20017;-59
2023/12/16 03:14:39;;;;;;;0.77;0.40;;;;;;;;;;5047438;28;20060;-59
2023/12/16 03:17:05;;;;;;;1.20;0.60;;;;;;;;;;5050066;28;20024;-59
2023/12/16 03:19:31;;;;;;;0.90;0.50;;;;;;;;;;5040842;28;20020;-58
2023/12/16 03:21:56;;;;;;;0.90;0.55;;;;;;;;;;5057424;28;20030;-60
2023/12/16 03:24:21;;;;;;;1.10;0.50;;;;;;;;;;5045741;28;20021;-59
2023/12/16 03:26:47;;;;;;;1.13;0.50;;;;;;;;;;5042167;28;20051;-59
2023/12/16 03:29:12;;;;;;;0.85;0.40;;;;;;;;;;5050002;28;20024;-59
2023/12/16 03:31:37;;;;;;;1.17;0.60;;;;;;;;;;5057888;28;20424;-60
2023/12/16 03:34:03;;;;;;;0.77;0.50;;;;;;;;;;5038131;28;20041;-60
2023/12/16 03:36:28;;;;;;;0.63;0.40;;;;;;;;;;5041935;28;20184;-58
2023/12/16 03:38:53;;;;;;;1.02;0.47;;;;;;;;;;5047894;28;20021;-59
2023/12/16 03:41:19;;;;;;;0.90;0.47;;;;;;;;;;5026382;28;20040;-60
2023/12/16 03:43:44;;;;;;;0.95;0.43;;;;;;;;;;5044337;28;20386;-59
2023/12/16 03:46:09;;;;;;;0.70;0.40;;;;;;;;;;5037123;28;20045;-59
2023/12/16 03:48:35;;;;;;;0.70;0.30;;;;;;;;;;5038446;28;20143;-59
2023/12/16 03:51:01;;;;;;;1.05;0.55;;;;;;;;;;5014788;28;20108;-59
2023/12/16 03:53:26;;;;;;;0.77;0.32;;;;;;;;;;5037996;28;20423;-59
2023/12/16 03:55:52;;;;;;;1.00;0.50;;;;;;;;;;5037778;28;20031;-60
2023/12/16 03:58:18;;;;;;;0.77;0.40;;;;;;;;;;5043263;28;20111;-58
2023/12/16 04:00:43;;;;;;;1.15;0.47;;;;;;;;;;5042674;28;20031;-58
2023/12/16 04:03:08;;;;;;;1.00;0.40;;;;;;;;;;5041097;28;20037;-59
2023/12/16 04:05:34;;;;;;;0.80;0.47;;;;;;;;;;5027509;28;20043;-60
2023/12/16 04:07:59;;;;;;;0.85;0.50;;;;;;;;;;5015726;28;20052;-58
2023/12/16 04:10:25;;;;;;;0.73;0.30;;;;;;;;;;5037266;28;20037;-59
2023/12/16 04:12:50;;;;;;;0.70;0.30;;;;;;;;;;5026230;28;20371;-59
2023/12/16 04:15:15;;;;;;;0.80;0.38;;;;;;;;;;5026379;28;20127;-58
2023/12/16 04:17:41;;;;;;;0.73;0.30;;;;;;;;;;5046564;28;20068;-60
2023/12/16 04:20:06;;;;;;;0.50;0.30;;;;;;;;;;5043675;28;20059;-59
2023/12/16 04:22:32;;;;;;;1.00;0.40;;;;;;;;;;5038918;28;20037;-59
2023/12/16 04:25:00;;;;;;;0.82;0.40;;;;;;;;;;5022823;28;20021;-58
2023/12/16 04:27:26;;;;;;;0.60;0.30;;;;;;;;;;5021399;28;20037;-59
2023/12/16 04:29:51;;;;;;;1.08;0.50;;;;;;;;;;5053617;28;20401;-60
2023/12/16 04:32:17;;;;;;;0.55;0.30;;;;;;;;;;5043462;28;20037;-59
2023/12/16 04:34:42;;;;;;;0.55;0.40;;;;;;;;;;5049083;28;20068;-59
2023/12/16 04:37:07;;;;;;;0.60;0.30;;;;;;;;;;5031225;28;20040;-59
2023/12/16 04:39:33;;;;;;;0.70;0.35;;;;;;;;;;5032532;28;20544;-60
2023/12/16 04:41:58;;;;;;;0.47;0.30;;;;;;;;;;5014241;28;20033;-60
2023/12/16 04:44:23;;;;;;;0.65;0.35;;;;;;;;;;5032577;28;20234;-60
2023/12/16 04:46:49;;;;;;;0.50;0.30;;;;;;;;;;5031065;28;20152;-59
2023/12/16 04:49:14;;;;;;;0.60;0.28;;;;;;;;;;5029406;28;20528;-59
2023/12/16 04:51:39;;;;;;;0.60;0.40;;;;;;;;;;5040903;28;21354;-60
2023/12/16 04:54:04;;;;;;;0.43;0.25;;;;;;;;;;5041837;28;20048;-58
2023/12/16 04:56:30;;;;;;;0.50;0.40;;;;;;;;;;5040124;28;20040;-59
2023/12/16 04:58:55;;;;;;;0.50;0.30;;;;;;;;;;5043350;28;20033;-58
2023/12/16 05:01:20;;;;;;;0.35;0.28;;;;;;;;;;5041079;28;20041;-57
2023/12/16 05:03:47;;;;;;;0.55;0.20;;;;;;;;;;5041989;28;20044;-57
2023/12/16 05:06:12;;;;;;;0.40;0.30;;;;;;;;;;5039260;28;20060;-58
2023/12/16 05:08:38;;;;;;;0.43;0.20;;;;;;;;;;5042335;28;20036;-58
2023/12/16 05:11:03;;;;;;;0.40;0.30;;;;;;;;;;5037602;28;20186;-58
2023/12/16 05:13:29;;;;;;;0.98;0.40;;;;;;;;;;5020102;28;20041;-61
2023/12/16 05:15:54;;;;;;;0.75;0.40;;;;;;;;;;5038575;28;20048;-58
2023/12/16 05:18:20;;;;;;;0.90;0.30;;;;;;;;;;5036011;28;20071;-58
2023/12/16 05:20:45;;;;;;;0.50;0.30;;;;;;;;;;5038921;28;20044;-59
2023/12/16 05:23:10;;;;;;;0.68;0.20;;;;;;;;;;5038249;28;20040;-58
2023/12/16 05:25:36;;;;;;;0.90;0.40;;;;;;;;;;5041986;28;20399;-58
2023/12/16 05:28:01;;;;;;;0.73;0.30;;;;;;;;;;5038729;28;20426;-58
2023/12/16 05:30:27;;;;;;;0.77;0.40;;;;;;;;;;5020602;28;20448;-58
2023/12/16 05:32:52;;;;;;;1.00;0.20;;;;;;;;;;5038659;28;20037;-59
2023/12/16 05:35:19;;;;;;;0.68;0.30;;;;;;;;;;5037754;28;20041;-58
2023/12/16 05:37:45;;;;;;;0.38;0.20;;;;;;;;;;5035999;28;20032;-58
2023/12/16 05:40:10;;;;;;;0.47;0.20;;;;;;;;;;5014719;28;20090;-59
2023/12/16 05:42:36;;;;;;;0.70;0.25;;;;;;;;;;5016039;28;20035;-59
2023/12/16 05:45:01;;;;;;;0.85;0.30;;;;;;;;;;5037273;28;20116;-58
2023/12/16 05:47:27;;;;;;;0.82;0.30;;;;;;;;;;5037716;28;20092;-58
2023/12/16 05:49:52;;;;;;;0.73;0.35;;;;;;;;;;5008244;28;21890;-59
2023/12/16 05:52:17;;;;;;;0.45;0.30;;;;;;;;;;5039225;28;20174;-59
2023/12/16 05:54:43;;;;;;;0.80;0.30;;;;;;;;;;5043137;28;20503;-58
2023/12/16 05:57:08;;;;;;;0.50;0.30;;;;;;;;;;5042309;28;20399;-58
2023/12/16 05:59:34;;;;;;;1.05;0.30;;;;;;;;;;5038999;28;20037;-58
2023/12/16 06:01:59;;;;;;;0.63;0.20;;;;;;;;;;5039040;28;20540;-57
2023/12/16 06:04:25;;;;;;;0.38;0.20;;;;;;;;;;5040098;28;20552;-59
2023/12/16 06:06:50;;;;;;;0.50;0.20;;;;;;;;;;5040219;28;20109;-58
2023/12/16 06:09:15;;;;;;;0.70;0.30;;;;;;;;;;5019980;28;20526;-58
2023/12/16 06:11:41;;;;;;;0.50;0.32;;;;;;;;;;5040738;28;20804;-59
2023/12/16 06:14:06;;;;;;;0.60;0.30;;;;;;;;;;5041299;28;20096;-58
2023/12/16 06:16:31;;;;;;;0.52;0.30;;;;;;;;;;5038997;28;20409;-58
2023/12/16 06:18:57;;;;;;;0.55;0.30;;;;;;;;;;5038785;28;20032;-59
2023/12/16 06:21:23;;;;;;;0.73;0.30;;;;;;;;;;5039226;28;20631;-59
2023/12/16 06:23:48;;;;;;;0.50;0.30;;;;;;;;;;5038641;28;20033;-58
2023/12/16 06:26:13;;;;;;;0.40;0.20;;;;;;;;;;5038414;28;20033;-59
2023/12/16 06:28:39;;;;;;;0.60;0.40;;;;;;;;;;5018905;28;20078;-59
2023/12/16 06:31:04;;;;;;;0.50;0.30;;;;;;;;;;5017621;28;20041;-59
2023/12/16 06:33:29;;;;;;;0.85;0.30;;;;;;;;;;5041743;28;20124;-58
2023/12/16 06:35:55;;;;;;;1.10;0.40;;;;;;;;;;5038741;28;20029;-60
2023/12/16 06:38:20;;;;;;;0.40;0.28;;;;;;;;;;5023029;28;20064;-60
2023/12/16 06:40:45;;;;;;;0.47;0.20;;;;;;;;;;5037862;28;20040;-59
2023/12/16 06:43:11;;;;;;;0.82;0.35;;;;;;;;;;5039945;28;20502;-59
2023/12/16 06:45:38;;;;;;;0.47;0.22;;;;;;;;;;5028340;28;20090;-60
2023/12/16 06:48:03;;;;;;;0.52;0.20;;;;;;;;;;5036533;28;20814;-60
2023/12/16 06:50:29;;;;;;;0.52;0.28;;;;;;;;;;5006975;28;20029;-60
2023/12/16 06:52:54;;;;;;;0.60;0.20;;;;;;;;;;5039433;28;20052;-60
2023/12/16 06:55:19;;;;;;;1.58;0.30;;;;;;;;;;5040530;28;20067;-60
2023/12/16 06:57:45;;;;;;;0.50;0.20;;;;;;;;;;5040056;28;20045;-61
2023/12/16 07:00:10;;;;;;;0.40;0.20;;;;;;;;;;5028440;28;20384;-61
2023/12/16 07:02:41;;;;;;;0.40;0.10;;;;;;;;;;5036594;28;20067;-60
2023/12/16 07:05:07;;;;;;;0.65;0.30;;;;;;;;;;5038943;28;20049;-60
2023/12/16 07:07:33;;;;;;;0.50;0.20;;;;;;;;;;5022576;28;20029;-60
2023/12/16 07:09:58;;;;;;;0.60;0.30;;;;;;;;;;5034742;28;20039;-61
2023/12/16 07:12:24;;;;;;;0.63;0.30;;;;;;;;;;5039003;28;20416;-61
2023/12/16 07:14:49;;;;;;;0.70;0.20;;;;;;;;;;5014752;28;20048;-61
2023/12/16 07:17:14;;;;;;;1.50;0.30;;;;;;;;;;5005513;28;20037;-62
2023/12/16 07:19:40;;;;;;;0.93;0.30;;;;;;;;;;5040394;28;20095;-60
2023/12/16 07:22:05;;;;;;;0.50;0.20;;;;;;;;;;5036403;28;20095;-61
2023/12/16 07:24:30;;;;;;;0.40;0.22;;;;;;;;;;5039779;28;20369;-61
2023/12/16 07:26:56;;;;;;;1.15;0.40;;;;;;;;;;5039256;28;20033;-62
2023/12/16 07:29:21;;;;;;;0.65;0.30;;;;;;;;;;5035222;28;20134;-60
2023/12/16 07:31:50;;;;;;;0.32;0.20;;;;;;;;;;5038114;28;20575;-61
2023/12/16 07:34:15;;;;;;;0.35;0.20;;;;;;;;;;5038689;28;20115;-60
2023/12/16 07:36:40;;;;;;;0.52;0.20;;;;;;;;;;5038409;28;20036;-60
2023/12/16 07:39:06;;;;;;;0.55;0.20;;;;;;;;;;5034573;28;20033;-60
2023/12/16 07:41:32;;;;;;;0.60;0.30;;;;;;;;;;5035729;28;20099;-59
2023/12/16 07:43:57;;;;;;;1.08;0.43;;;;;;;;;;5030070;28;20106;-59
2023/12/16 07:46:24;;;;;;;0.40;0.20;;;;;;;;;;5031489;28;20037;-60
2023/12/16 07:48:49;;;;;;;0.73;0.30;;;;;;;;;;5031422;28;20037;-61
2023/12/16 07:51:15;;;;;;;0.57;0.20;;;;;;;;;;5034498;28;20056;-60
2023/12/16 07:53:43;;;;;;;0.73;0.30;;;;;;;;;;5022249;28;20037;-61
2023/12/16 07:56:14;;;;;;;0.35;0.20;;;;;;;;;;5038824;28;20135;-61
2023/12/16 07:58:40;;;;;;;0.73;0.28;;;;;;;;;;5035989;28;20032;-61
2023/12/16 08:01:06;;;;;;;0.50;0.10;;;;;;;;;;5037739;28;20071;-60
2023/12/16 08:03:31;;;;;;;0.22;0.20;;;;;;;;;;5023996;28;20037;-61
2023/12/16 08:05:56;;;;;;;0.52;0.20;;;;;;;;;;5037657;28;20037;-61
2023/12/16 08:08:22;;;;;;;0.43;0.20;;;;;;;;;;5037581;28;20037;-60
2023/12/16 08:10:47;;;;;;;0.35;0.20;;;;;;;;;;5037109;28;20040;-61
2023/12/16 08:13:12;;;;;;;0.60;0.30;;;;;;;;;;5034805;28;20111;-60
2023/12/16 08:15:38;;;;;;;1.17;0.20;;;;;;;;;;5034128;28;20560;-61
2023/12/16 08:18:03;;;;;;;0.77;0.20;;;;;;;;;;5014844;28;20593;-61
2023/12/16 08:20:28;;;;;;;0.30;0.13;;;;;;;;;;5035617;28;20106;-61
2023/12/16 08:22:54;;;;;;;0.60;0.30;;;;;;;;;;5018476;28;20510;-61
2023/12/16 08:25:20;;;;;;;1.08;0.40;;;;;;;;;;5039784;28;20041;-61
2023/12/16 08:27:45;;;;;;;0.70;0.38;;;;;;;;;;5036787;28;20536;-61
2023/12/16 08:30:11;;;;;;;1.58;0.50;;;;;;;;;;5034813;28;20044;-60
2023/12/16 08:32:36;;;;;;;0.98;0.32;;;;;;;;;;5036685;28;20044;-61
2023/12/16 08:35:03;;;;;;;1.45;0.40;;;;;;;;;;5035977;28;20049;-60
2023/12/16 08:37:28;;;;;;;1.17;0.43;;;;;;;;;;5036506;28;20435;-59
2023/12/16 08:39:53;;;;;;;2.97;0.52;;;;;;;;;;5027498;28;20040;-60
2023/12/16 08:42:19;;;;;;;1.52;0.47;;;;;;;;;;5035220;28;20495;-62
2023/12/16 08:44:44;;;;;;;1.75;0.60;;;;;;;;;;5037569;28;20048;-61
2023/12/16 08:47:10;;;;;;;1.77;0.40;;;;;;;;;;5031616;28;20037;-60
2023/12/16 08:49:35;;;;;;;1.25;0.43;;;;;;;;;;5025238;28;20048;-59
2023/12/16 08:52:00;;;;;;;2.15;0.40;;;;;;;;;;5031268;28;20029;-59
2023/12/16 08:54:26;;;;;;;1.35;0.30;;;;;;;;;;5035088;28;20094;-59
2023/12/16 08:56:51;;;;;;;1.38;0.50;;;;;;;;;;5036403;28;20027;-60
2023/12/16 08:59:16;;;;;;;1.83;0.50;;;;;;;;;;5034962;28;20037;-60
2023/12/16 09:01:42;;;;;;;1.98;0.50;;;;;;;;;;5035476;28;20423;-60
2023/12/16 09:04:07;;;;;;;1.95;0.40;;;;;;;;;;5036014;28;20694;-60
2023/12/16 09:06:37;;;;;;;1.23;0.30;;;;;;;;;;5035372;28;20041;-60
2023/12/16 09:09:03;;;;;;;1.20;0.45;;;;;;;;;;5012219;28;20105;-60
2023/12/16 09:11:29;;;;;;;1.60;0.50;;;;;;;;;;5034977;28;20069;-59
2023/12/16 09:13:54;;;;;;;1.77;0.50;;;;;;;;;;5034082;28;20140;-59
2023/12/16 09:16:19;;;;;;;2.45;0.65;;;;;;;;;;5003870;28;20502;-60
2023/12/16 09:18:45;;;;;;;1.50;0.50;;;;;;;;;;5034390;28;20099;-60
2023/12/16 09:21:14;;;;;;;1.38;0.52;;;;;;;;;;5033546;28;20057;-60
2023/12/16 09:23:39;;;;;;;1.47;0.50;;;;;;;;;;5030690;28;20034;-60
2023/12/16 09:26:05;;;;;;;1.20;0.65;;;;;;;;;;5034816;28;20067;-60
2023/12/16 09:28:30;;;;;;;1.17;0.40;;;;;;;;;;5034552;28;20037;-60
2023/12/16 09:30:55;;;;;;;1.25;0.50;;;;;;;;;;5035241;28;20025;-61
2023/12/16 09:33:21;;;;;;;1.98;0.43;;;;;;;;;;5015715;28;20517;-61
2023/12/16 09:35:47;;;;;;;1.38;0.55;;;;;;;;;;5035878;28;20052;-60
2023/12/16 09:38:12;;;;;;;1.15;0.50;;;;;;;;;;5035906;28;20043;-60
2023/12/16 09:40:39;;;;;;;1.27;0.50;;;;;;;;;;5036867;28;20410;-60
2023/12/16 09:43:11;;;;;;;2.97;0.55;;;;;;;;;;5037845;28;20040;-60
2023/12/16 09:45:36;;;;;;;0.98;0.60;;;;;;;;;;5037797;28;20143;-60
2023/12/16 09:48:01;;;;;;;1.15;0.50;;;;;;;;;;5038998;28;20166;-60
2023/12/16 09:50:27;;;;;;;1.10;0.50;;;;;;;;;;5038668;28;20099;-60
2023/12/16 09:52:52;;;;;;;1.70;0.50;;;;;;;;;;5040043;28;20706;-60
2023/12/16 09:55:18;;;;;;;1.83;0.55;;;;;;;;;;5037343;28;20646;-59
2023/12/16 09:57:43;;;;;;;1.52;0.60;;;;;;;;;;5039419;28;20357;-59
2023/12/16 10:00:09;;;;;;;1.55;0.93;;;;;;;;;;5037562;28;20060;-62
2023/12/16 10:02:34;;;;;;;1.40;0.70;;;;;;;;;;5037799;28;20605;-61
2023/12/16 10:05:00;;;;;;;1.65;0.77;;;;;;;;;;5022548;28;20045;-62
2023/12/16 10:07:28;;;;;;;1.98;0.80;;;;;;;;;;5023758;28;20044;-60
2023/12/16 10:09:53;;;;;;;1.48;0.70;;;;;;;;;;5036967;28;20124;-60
2023/12/16 10:12:19;;;;;;;1.02;0.60;;;;;;;;;;5038663;28;20685;-60
2023/12/16 10:14:47;;;;;;;1.77;0.82;;;;;;;;;;5038410;28;20049;-60
2023/12/16 10:17:15;;;;;;;1.73;0.80;;;;;;;;;;5038319;28;20064;-60
2023/12/16 10:19:41;;;;;;;1.40;0.80;;;;;;;;;;5037532;28;20044;-61
2023/12/16 10:22:07;;;;;;;3.53;0.90;;;;;;;;;;5036786;28;20025;-63
2023/12/16 10:24:32;;;;;;;1.33;0.65;;;;;;;;;;5031429;28;20052;-60
2023/12/16 10:26:57;;;;;;;1.85;0.80;;;;;;;;;;5039140;28;20033;-62
2023/12/16 10:29:22;;;;;;;2.10;0.80;;;;;;;;;;5030289;28;20917;-62
2023/12/16 10:31:48;;;;;;;1.70;0.90;;;;;;;;;;5040095;28;20088;-62
2023/12/16 10:34:16;;;;;;;1.70;0.80;;;;;;;;;;5040367;28;20140;-62
2023/12/16 10:36:41;;;;;;;1.50;1.00;;;;;;;;;;5019654;28;20082;-62
2023/12/16 10:39:07;;;;;;;2.42;1.00;;;;;;;;;;5040198;28;20466;-62
2023/12/16 10:41:32;;;;;;;2.40;0.80;;;;;;;;;;5040137;28;20049;-62
2023/12/16 10:43:57;;;;;;;2.30;0.90;;;;;;;;;;5018664;28;20029;-62
2023/12/16 10:46:22;;;;;;;2.67;0.93;;;;;;;;;;5035081;28;20063;-60
2023/12/16 10:48:48;;;;;;;2.95;0.90;;;;;;;;;;5038169;28;20125;-61
2023/12/16 10:51:14;;;;;;;2.28;0.90;;;;;;;;;;5036423;28;20071;-60
2023/12/16 10:53:44;;;;;;;1.77;0.80;;;;;;;;;;5035514;28;20070;-60
2023/12/16 10:56:16;;;;;;;3.20;0.90;;;;;;;;;;5014953;28;20183;-60
2023/12/16 10:58:43;;;;;;;3.10;1.23;;;;;;;;;;5017326;28;20078;-60
2023/12/16 11:01:16;;;;;;;2.45;1.10;;;;;;;;;;5013017;28;20017;-60
2023/12/16 11:03:54;;;;;;;2.95;1.20;;;;;;;;;;5036896;28;20032;-60
2023/12/16 11:06:21;;;;;;;1.80;1.00;;;;;;;;;;5014596;28;20051;-60
2023/12/16 11:08:47;;;;;;;2.22;1.00;;;;;;;;;;5038753;28;20103;-58
2023/12/16 11:11:12;;;;;;;2.35;1.10;;;;;;;;;;5037278;28;20561;-59
2023/12/16 11:13:37;;;;;;;2.47;1.00;;;;;;;;;;5017900;28;20025;-59
2023/12/16 11:16:05;;;;;;;2.75;1.27;;;;;;;;;;5036686;28;20117;-59
2023/12/16 11:18:30;;;;;;;2.47;1.20;;;;;;;;;;5018261;28;20076;-59
2023/12/16 11:20:56;;;;;;;3.20;1.17;;;;;;;;;;5031663;28;20104;-60
2023/12/16 11:23:26;;;;;;;2.08;1.17;;;;;;;;;;5035140;28;20029;-61
2023/12/16 11:25:52;;;;;;;2.15;0.85;;;;;;;;;;5031369;28;20044;-60
2023/12/16 11:28:18;;;;;;;2.28;1.10;;;;;;;;;;5034826;28;20064;-60
2023/12/16 11:30:44;;;;;;;2.25;0.90;;;;;;;;;;5020998;28;20152;-60
2023/12/16 11:33:09;;;;;;;2.47;1.20;;;;;;;;;;5032352;28;20041;-61
2023/12/16 11:35:34;;;;;;;2.35;1.23;;;;;;;;;;5032387;28;20083;-61
2023/12/16 11:38:00;;;;;;;2.83;1.38;;;;;;;;;;5032302;28;20121;-61
2023/12/16 11:40:58;;;;;;;3.50;1.40;;;;;;;;;;5038488;28;20060;-59
2023/12/16 11:43:23;;;;;;;2.83;1.30;;;;;;;;;;4987348;28;20142;-60
2023/12/16 11:45:49;;;;;;;3.63;1.17;;;;;;;;;;5037298;28;20040;-60
2023/12/16 11:48:15;;;;;;;1.67;1.08;;;;;;;;;;5033862;28;20036;-59
2023/12/16 11:50:42;;;;;;;3.28;1.38;;;;;;;;;;5032908;28;20029;-61
2023/12/16 11:53:09;;;;;;;2.55;1.15;;;;;;;;;;5035297;28;20040;-59
2023/12/16 11:55:34;;;;;;;3.10;1.30;;;;;;;;;;5013699;28;20487;-60
2023/12/16 11:57:59;;;;;;;2.75;1.40;;;;;;;;;;5035484;28;20107;-60
2023/12/16 12:00:25;;;;;;;2.70;1.15;;;;;;;;;;5035904;28;20068;-60
2023/12/16 12:02:51;;;;;;;3.30;1.27;;;;;;;;;;5034486;28;21914;-60
2023/12/16 12:05:16;;;;;;;3.25;1.38;;;;;;;;;;5017735;28;20041;-60
2023/12/16 12:07:43;;;;;;;2.72;1.23;;;;;;;;;;5014337;28;20127;-60
2023/12/16 12:10:09;;;;;;;2.80;1.30;;;;;;;;;;5032057;28;21025;-60
2023/12/16 12:12:34;;;;;;;2.13;1.05;;;;;;;;;;5021111;28;20033;-60
2023/12/16 12:14:59;;;;;;;4.05;1.38;;;;;;;;;;5034395;28;20049;-60
2023/12/16 12:17:26;;;;;;;3.25;1.45;;;;;;;;;;5031883;28;20038;-59
2023/12/16 12:19:51;;;;;;;3.80;1.40;;;;;;;;;;5037025;28;20068;-60
2023/12/16 12:22:19;;;;;;;2.78;1.52;;;;;;;;;;5036376;28;20126;-60
2023/12/16 12:24:44;;;;;;;2.97;1.40;;;;;;;;;;5015156;28;20172;-61
2023/12/16 12:27:10;;;;;;;3.17;1.50;;;;;;;;;;5033615;28;20033;-61
2023/12/16 12:29:54;;;;;;;2.78;1.42;;;;;;;;;;5032165;28;20108;-61
2023/12/16 12:32:19;;;;;;;4.45;1.35;;;;;;;;;;5034030;28;20041;-61
2023/12/16 12:34:44;;;;;;;3.92;1.75;;;;;;;;;;5031724;28;20047;-61
2023/12/16 12:37:10;;;;;;;3.05;1.35;;;;;;;;;;5033857;28;20560;-61
2023/12/16 12:39:35;;;;;;;3.72;1.63;;;;;;;;;;5035795;28;20083;-61
2023/12/16 12:42:01;;;;;;;3.75;1.70;;;;;;;;;;5033519;28;20128;-61
2023/12/16 12:44:27;;;;;;;3.08;1.50;;;;;;;;;;4995921;28;20056;-61
2023/12/16 12:46:52;;;;;;;3.28;1.70;;;;;;;;;;5032711;28;20522;-61
2023/12/16 12:49:18;;;;;;;5.22;1.50;;;;;;;;;;5032961;28;20146;-61
2023/12/16 12:51:50;;;;;;;2.65;1.35;;;;;;;;;;5013201;28;20125;-61
2023/12/16 12:54:16;;;;;;;2.67;1.50;;;;;;;;;;5030569;28;20048;-61
2023/12/16 12:56:41;;;;;;;3.00;1.38;;;;;;;;;;5036420;28;20029;-61
2023/12/16 12:59:06;;;;;;;3.90;1.92;;;;;;;;;;5034649;28;20025;-59
2023/12/16 13:01:32;;;;;;;3.20;1.52;;;;;;;;;;5035450;28;20074;-60
2023/12/16 13:03:57;;;;;;;3.05;1.45;;;;;;;;;;5034299;28;20048;-60
2023/12/16 13:06:23;;;;;;;4.13;1.80;;;;;;;;;;5030363;28;20175;-60
2023/12/16 13:08:49;;;;;;;3.50;1.50;;;;;;;;;;5028982;28;20640;-60
2023/12/16 13:11:14;;;;;;;3.35;1.80;;;;;;;;;;5014663;28;20041;-61
2023/12/16 13:13:40;;;;;;;3.13;1.67;;;;;;;;;;5031264;28;20037;-60
2023/12/16 13:16:05;;;;;;;3.85;2.05;;;;;;;;;;5037118;28;20150;-60
2023/12/16 13:18:31;;;;;;;3.50;1.65;;;;;;;;;;5039980;28;20095;-58
2023/12/16 13:20:56;;;;;;;3.58;1.67;;;;;;;;;;5039516;28;20033;-61
2023/12/16 13:23:22;;;;;;;3.42;1.70;;;;;;;;;;5040068;28;20044;-60
2023/12/16 13:25:49;;;;;;;2.85;1.48;;;;;;;;;;5039133;28;20119;-60
2023/12/16 13:28:14;;;;;;;3.05;1.60;;;;;;;;;;5039039;28;20435;-61
2023/12/16 13:30:40;;;;;;;2.65;1.50;;;;;;;;;;5019107;28;20056;-60
2023/12/16 13:33:06;;;;;;;3.08;1.55;;;;;;;;;;5027326;28;20038;-61
2023/12/16 13:35:31;;;;;;;3.53;1.73;;;;;;;;;;5036622;28;20128;-61
2023/12/16 13:37:57;;;;;;;3.50;1.52;;;;;;;;;;5038122;28;20522;-59
2023/12/16 13:40:22;;;;;;;4.47;1.85;;;;;;;;;;5031852;28;20035;-59
2023/12/16 13:42:47;;;;;;;2.58;1.52;;;;;;;;;;5037038;28;20041;-59
2023/12/16 13:45:13;;;;;;;4.63;1.80;;;;;;;;;;5038989;28;20510;-58
2023/12/16 13:47:38;;;;;;;3.78;1.67;;;;;;;;;;5039073;28;20869;-58
2023/12/16 13:50:04;;;;;;;3.15;1.67;;;;;;;;;;5038996;28;20092;-59
2023/12/16 13:52:30;;;;;;;2.45;1.30;;;;;;;;;;5038780;28;20067;-59
2023/12/16 13:54:55;;;;;;;3.35;1.67;;;;;;;;;;5037018;28;20049;-59
2023/12/16 13:57:20;;;;;;;2.92;1.60;;;;;;;;;;5038673;28;20052;-59
2023/12/16 13:59:46;;;;;;;2.85;1.50;;;;;;;;;;5039764;28;21966;-58
2023/12/16 14:02:11;;;;;;;3.17;1.58;;;;;;;;;;5037694;28;20094;-59
2023/12/16 14:04:38;;;;;;;2.83;1.50;;;;;;;;;;5036760;28;20040;-58
2023/12/16 14:07:03;;;;;;;3.38;1.70;;;;;;;;;;5040164;28;20048;-60
2023/12/16 14:09:29;;;;;;;5.03;1.73;;;;;;;;;;5032119;28;21478;-59
2023/12/16 14:11:54;;;;;;;2.90;1.60;;;;;;;;;;5039843;28;20502;-59
2023/12/16 14:14:20;;;;;;;3.20;1.73;;;;;;;;;;5041380;28;20482;-59
2023/12/16 14:16:45;;;;;;;3.88;1.75;;;;;;;;;;5036419;28;21959;-59
2023/12/16 14:19:11;;;;;;;2.95;1.52;;;;;;;;;;5021177;28;20037;-59
2023/12/16 14:21:36;;;;;;;3.17;1.60;;;;;;;;;;5028038;28;20108;-59
2023/12/16 14:24:01;;;;;;;3.38;1.60;;;;;;;;;;5036763;28;20024;-59
2023/12/16 14:26:27;;;;;;;4.18;1.65;;;;;;;;;;5037206;28;20009;-58
2023/12/16 14:28:52;;;;;;;2.55;1.38;;;;;;;;;;5040156;28;20028;-58
2023/12/16 14:31:18;;;;;;;4.45;2.00;;;;;;;;;;5037495;28;20666;-59
2023/12/16 14:33:44;;;;;;;2.85;1.45;;;;;;;;;;5037103;28;20550;-59